createdAt,value
2022-09-12T00:03:01.775Z,12.8
2022-09-12T00:08:01.742Z,13.9
2022-09-12T00:13:01.924Z,14.3
2022-09-12T00:18:01.719Z,13.6
2022-09-12T00:28:01.764Z,13.8
2022-09-12T00:33:02.002Z,13.2
2022-09-12T00:38:01.727Z,13.2
2022-09-12T00:43:02.187Z,14.5
2022-09-12T00:48:01.716Z,15.0
2022-09-12T00:53:01.792Z,14.5
2022-09-12T00:58:01.740Z,14.3
2022-09-12T01:03:01.683Z,14.4
2022-09-12T01:08:01.716Z,14.1
2022-09-12T01:13:01.750Z,14.7
2022-09-12T01:18:01.678Z,14.2
2022-09-12T01:23:01.647Z,15.2
2022-09-12T01:28:01.655Z,15.8
2022-09-12T01:33:01.769Z,15.2
2022-09-12T01:38:01.642Z,14.3
2022-09-12T01:43:01.640Z,14.1
2022-09-12T01:48:01.709Z,13.5
2022-09-12T01:53:01.792Z,13.2
2022-09-12T01:58:01.808Z,12.9
2022-09-12T02:03:01.752Z,13.2
2022-09-12T02:08:01.838Z,14.3
2022-09-12T02:13:01.743Z,15.5
2022-09-12T02:18:01.785Z,14.8
2022-09-12T02:23:01.941Z,15.2
2022-09-12T02:28:01.872Z,16.4
2022-09-12T02:33:01.790Z,15.9
2022-09-12T02:38:01.857Z,15.2
2022-09-12T02:44:01.896Z,15.3
2022-09-12T02:54:01.798Z,14.3
2022-09-12T02:59:01.762Z,14.1
2022-09-12T03:04:01.590Z,14.0
2022-09-12T03:09:01.735Z,14.6
2022-09-12T03:14:12.116Z,15.9
2022-09-12T03:19:01.639Z,15.9
2022-09-12T03:24:01.986Z,16.8
2022-09-12T03:29:01.730Z,16.4
2022-09-12T03:34:02.592Z,16.5
2022-09-12T03:39:01.731Z,16.5
2022-09-12T03:44:01.802Z,17.2
2022-09-12T03:49:01.717Z,17.0
2022-09-12T03:54:01.730Z,17.1
2022-09-12T03:59:01.717Z,16.2
2022-09-12T04:04:02.336Z,15.8
2022-09-12T04:09:01.843Z,16.0
2022-09-12T04:14:01.786Z,14.9
2022-09-12T04:19:01.754Z,16.3
2022-09-12T04:24:01.753Z,17.5
2022-09-12T04:29:01.894Z,17.2
2022-09-12T04:34:02.257Z,16.5
2022-09-12T04:39:01.721Z,17.5
2022-09-12T04:44:01.826Z,16.7
2022-09-12T04:49:01.687Z,15.6
2022-09-12T04:54:01.757Z,16.4
2022-09-12T04:59:01.685Z,16.3
2022-09-12T05:04:01.771Z,16.0
2022-09-12T05:09:01.735Z,16.4
2022-09-12T05:14:01.780Z,18.0
2022-09-12T05:19:01.806Z,17.1
2022-09-12T05:24:01.713Z,16.8
2022-09-12T05:29:03.202Z,15.8
2022-09-12T05:34:01.788Z,14.3
2022-09-12T05:39:01.747Z,14.2
2022-09-12T05:44:01.760Z,15.4
2022-09-12T05:49:01.845Z,17.0
2022-09-12T05:54:01.713Z,18.9
2022-09-12T05:59:01.826Z,20.5
2022-09-12T06:04:01.438Z,20.9
2022-09-12T06:09:03.766Z,21.1
2022-09-12T06:14:02.974Z,20.8
2022-09-12T06:19:01.756Z,20.5
2022-09-12T06:24:01.834Z,20.3
2022-09-12T06:29:01.802Z,19.7
2022-09-12T06:34:01.722Z,19.2
2022-09-12T06:39:01.746Z,19.6
2022-09-12T06:44:02.927Z,19.6
2022-09-12T06:49:01.869Z,20.0
2022-09-12T06:54:01.722Z,20.2
2022-09-12T06:59:01.791Z,20.5
2022-09-12T07:04:03.284Z,20.4
2022-09-12T07:14:01.680Z,20.1
2022-09-12T07:19:01.754Z,19.9
2022-09-12T07:24:02.412Z,19.8
2022-09-12T07:34:04.598Z,19.5
2022-09-12T07:44:02.239Z,20.2
2022-09-12T07:49:02.160Z,20.0
2022-09-12T07:54:01.779Z,20.0
2022-09-12T07:59:01.687Z,19.9
2022-09-12T08:04:01.759Z,19.3
2022-09-12T08:09:01.720Z,18.7
2022-09-12T08:14:01.723Z,19.0
2022-09-12T08:19:01.739Z,18.8
2022-09-12T08:24:01.823Z,18.5
2022-09-12T08:29:01.766Z,18.5
2022-09-12T08:34:01.964Z,18.6
2022-09-12T08:39:04.315Z,17.8
2022-09-12T08:44:01.774Z,16.9
2022-09-12T08:49:03.305Z,16.7
2022-09-12T08:54:03.648Z,15.9
2022-09-12T08:59:02.237Z,14.3
2022-09-12T09:04:01.609Z,14.8
2022-09-12T09:09:01.736Z,13.9
2022-09-12T09:14:05.806Z,13.8
2022-09-12T09:19:01.729Z,14.1
2022-09-12T09:24:04.901Z,14.5
2022-09-12T09:29:05.221Z,12.7
2022-09-12T09:34:04.935Z,12.4
2022-09-12T09:39:17.519Z,11.8
2022-09-12T09:44:02.113Z,11.0
2022-09-12T09:54:01.690Z,9.8
2022-09-12T09:59:11.277Z,9.0
2022-09-12T10:04:02.159Z,7.9
2022-09-12T10:09:01.732Z,7.5
2022-09-12T10:14:02.109Z,6.4
2022-09-12T10:19:03.241Z,5.9
2022-09-12T10:29:01.723Z,5.7
2022-09-12T10:35:01.896Z,4.6
2022-09-12T10:45:02.158Z,4.3
2022-09-12T10:50:23.518Z,4.2
2022-09-12T10:55:02.054Z,4.0
2022-09-12T11:00:06.707Z,4.2
2022-09-12T11:05:09.179Z,4.1
2022-09-12T11:10:01.812Z,4.2
2022-09-12T11:15:17.459Z,4.0
2022-09-12T11:20:14.757Z,3.7
2022-09-12T11:25:01.615Z,3.8
2022-09-12T11:30:04.532Z,4.0
2022-09-12T11:35:01.661Z,3.6
2022-09-12T11:40:01.722Z,4.0
2022-09-12T11:45:04.787Z,4.2
2022-09-12T11:50:08.407Z,3.9
2022-09-12T11:55:01.658Z,3.7
2022-09-12T12:00:05.446Z,3.4
2022-09-12T12:05:14.794Z,2.5
2022-09-12T12:10:02.344Z,2.3
2022-09-12T12:15:02.252Z,2.3
2022-09-12T12:20:09.185Z,2.1
2022-09-12T12:25:01.755Z,2.5
2022-09-12T12:30:02.306Z,2.9
2022-09-12T12:35:17.327Z,2.9
2022-09-12T12:40:07.814Z,3.0
2022-09-12T12:45:17.606Z,3.2
2022-09-12T12:50:01.754Z,2.8
2022-09-12T12:55:03.291Z,2.3
2022-09-12T13:00:08.150Z,2.2
2022-09-12T13:05:01.633Z,1.9
2022-09-12T13:10:01.537Z,1.7
2022-09-12T13:15:03.766Z,2.0
2022-09-12T13:25:01.655Z,2.3
2022-09-12T13:30:17.390Z,2.3
2022-09-12T13:45:17.169Z,1.9
2022-09-12T13:55:03.641Z,2.0
2022-09-12T14:00:05.774Z,2.2
2022-09-12T14:05:01.632Z,2.0
2022-09-12T14:15:03.407Z,2.3
2022-09-12T14:25:01.679Z,2.4
2022-09-12T14:30:16.881Z,2.6
2022-09-12T14:35:05.379Z,2.4
2022-09-12T14:40:01.843Z,2.0
2022-09-12T14:45:03.798Z,1.4
2022-09-12T14:50:01.819Z,1.4
2022-09-12T14:55:02.566Z,1.1
2022-09-12T15:15:12.941Z,2.0
2022-09-12T15:20:01.914Z,1.5
2022-09-12T15:25:01.606Z,1.7
2022-09-12T15:30:02.540Z,1.8
2022-09-12T15:35:01.957Z,1.8
2022-09-12T15:40:02.022Z,2.0
2022-09-12T15:45:18.996Z,2.0
2022-09-12T15:50:01.711Z,2.0
2022-09-12T15:55:01.635Z,1.9
2022-09-12T16:00:02.534Z,2.1
2022-09-12T16:05:01.620Z,2.1
2022-09-12T16:10:02.219Z,2.5
2022-09-12T16:15:02.274Z,2.7
2022-09-12T16:20:01.766Z,2.7
2022-09-12T16:30:02.966Z,2.2
2022-09-12T16:35:01.751Z,2.0
2022-09-12T16:40:01.824Z,2.0
2022-09-12T16:45:02.653Z,2.0
2022-09-12T16:50:01.661Z,2.3
2022-09-12T16:55:01.903Z,2.6
2022-09-12T17:00:02.656Z,3.0
2022-09-12T17:05:01.608Z,3.0
2022-09-12T17:10:01.600Z,2.6
2022-09-12T17:15:02.166Z,2.5
2022-09-12T17:20:01.671Z,2.9
2022-09-12T17:25:01.815Z,2.7
2022-09-12T17:30:01.879Z,2.9
2022-09-12T17:35:02.347Z,4.0
2022-09-12T17:40:03.057Z,4.9
2022-09-12T17:45:02.030Z,5.5
2022-09-12T17:50:36.583Z,6.4
2022-09-12T17:55:01.602Z,7.0
2022-09-12T18:00:02.722Z,7.2
2022-09-12T18:05:01.572Z,7.8
2022-09-12T18:10:01.583Z,8.0
2022-09-12T18:15:01.824Z,7.9
2022-09-12T18:20:02.213Z,9.3
2022-09-12T18:25:01.361Z,10.6
2022-09-12T18:30:22.532Z,11.6
2022-09-12T18:35:01.310Z,13.4
2022-09-12T18:40:01.892Z,14.6
2022-09-12T18:45:01.958Z,14.8
2022-09-12T18:50:01.689Z,14.8
2022-09-12T18:55:02.517Z,13.7
2022-09-12T19:00:02.958Z,12.6
2022-09-12T19:05:01.711Z,11.9
2022-09-12T19:10:01.980Z,10.5
2022-09-12T19:15:02.074Z,10.1
2022-09-12T19:20:01.661Z,9.6
2022-09-12T19:25:01.650Z,9.0
2022-09-12T19:30:02.508Z,8.5
2022-09-12T19:40:01.853Z,7.8
2022-09-12T19:45:02.029Z,7.6
2022-09-12T19:50:01.804Z,7.8
2022-09-12T19:55:01.645Z,8.3
2022-09-12T20:00:03.340Z,8.4
2022-09-12T20:05:02.259Z,8.4
2022-09-12T20:10:01.389Z,8.7
2022-09-12T20:15:02.393Z,8.8
2022-09-12T20:20:01.665Z,8.4
2022-09-12T20:25:01.640Z,8.2
2022-09-12T20:30:03.433Z,8.3
2022-09-12T20:35:01.640Z,8.8
2022-09-12T20:40:01.792Z,7.6
2022-09-12T20:45:02.894Z,7.8
2022-09-12T20:50:01.944Z,8.1
2022-09-12T20:55:01.936Z,8.6
2022-09-12T21:00:02.317Z,8.4
2022-09-12T21:05:02.701Z,9.6
2022-09-12T21:10:01.802Z,10.0
2022-09-12T21:15:03.254Z,10.2
2022-09-12T21:20:01.634Z,10.0
2022-09-12T21:30:02.692Z,10.4
2022-09-12T21:35:01.635Z,10.3
2022-09-12T21:40:03.075Z,10.6
2022-09-12T21:45:02.223Z,10.8
2022-09-12T21:50:01.746Z,11.3
2022-09-12T21:55:01.652Z,11.5
2022-09-12T22:00:04.127Z,11.5
2022-09-12T22:05:01.636Z,11.7
2022-09-12T22:10:01.782Z,12.0
2022-09-12T22:20:01.651Z,11.8
2022-09-12T22:25:01.656Z,11.9
2022-09-12T22:30:02.282Z,11.6
2022-09-12T22:35:01.642Z,11.2
2022-09-12T22:40:02.840Z,11.2
2022-09-12T22:45:03.645Z,10.6
2022-09-12T22:55:01.792Z,10.7
2022-09-12T23:00:04.127Z,10.7
2022-09-12T23:05:01.727Z,10.0
2022-09-12T23:10:01.675Z,10.3
2022-09-12T23:15:02.584Z,10.3
2022-09-12T23:20:01.642Z,10.1
2022-09-12T23:25:01.713Z,10.0
2022-09-12T23:30:02.113Z,10.5
2022-09-12T23:35:01.674Z,10.8
2022-09-12T23:40:01.996Z,11.2
2022-09-12T23:45:02.249Z,11.6
2022-09-12T23:50:02.012Z,11.6
2022-09-12T23:55:01.873Z,11.2
